createdAt,value
2022-10-25T00:01:55.929Z,16.25
2022-10-25T00:04:23.651Z,16.73
2022-10-25T00:06:50.970Z,15.82
2022-10-25T00:09:18.563Z,15.48
2022-10-25T00:11:46.442Z,16.77
2022-10-25T00:14:18.714Z,15.43
2022-10-25T00:16:46.401Z,15.50
2022-10-25T00:19:14.340Z,15.98
2022-10-25T00:21:41.692Z,14.52
2022-10-25T00:24:13.565Z,16.90
2022-10-25T00:26:41.350Z,16.98
2022-10-25T00:29:11.694Z,17.17
2022-10-25T00:31:39.101Z,18.20
2022-10-25T00:34:06.523Z,18.75
2022-10-25T00:36:34.143Z,18.95
2022-10-25T00:39:01.516Z,18.37
2022-10-25T00:41:31.951Z,17.45
2022-10-25T00:44:41.117Z,18.10
2022-10-25T00:47:11.207Z,17.95
2022-10-25T00:49:38.795Z,18.48
2022-10-25T00:52:06.952Z,19.33
2022-10-25T00:54:37.903Z,19.58
2022-10-25T00:57:11.238Z,20.52
2022-10-25T00:59:38.942Z,18.48
2022-10-25T01:02:06.759Z,19.77
2022-10-25T01:04:34.566Z,20.37
2022-10-25T01:07:02.702Z,20.37
2022-10-25T01:09:32.919Z,21.25
2022-10-25T01:12:00.382Z,20.85
2022-10-25T01:14:28.264Z,21.30
2022-10-25T01:17:10.051Z,21.12
2022-10-25T01:19:44.228Z,20.65
2022-10-25T01:22:49.561Z,19.83
2022-10-25T01:25:38.042Z,20.60
2022-10-25T01:28:32.576Z,19.83
2022-10-25T01:31:00.314Z,20.30
2022-10-25T01:33:50.589Z,21.23
2022-10-25T01:36:28.911Z,19.95
2022-10-25T01:39:16.054Z,19.60
2022-10-25T01:42:03.588Z,18.75
2022-10-25T01:45:01.741Z,18.62
2022-10-25T01:47:38.556Z,19.20
2022-10-25T01:50:09.227Z,17.90
2022-10-25T01:52:36.734Z,18.37
2022-10-25T01:55:06.979Z,17.70
2022-10-25T01:57:46.934Z,19.35
2022-10-25T02:00:19.591Z,19.67
2022-10-25T02:03:08.997Z,19.75
2022-10-25T02:06:03.163Z,19.05
2022-10-25T02:09:03.177Z,18.12
2022-10-25T02:11:31.957Z,19.60
2022-10-25T02:14:19.931Z,17.23
2022-10-25T02:16:59.356Z,16.85
2022-10-25T02:19:32.084Z,17.92
2022-10-25T02:22:01.787Z,15.80
2022-10-25T02:24:30.629Z,14.87
2022-10-25T02:26:59.003Z,12.07
2022-10-25T02:29:28.625Z,12.15
2022-10-25T02:31:55.958Z,11.85
2022-10-25T02:34:23.521Z,10.63
2022-10-25T02:36:53.157Z,11.35
2022-10-25T02:39:23.827Z,10.95
2022-10-25T02:41:52.930Z,11.98
2022-10-25T02:44:20.320Z,11.75
2022-10-25T02:46:47.657Z,11.95
2022-10-25T02:49:15.278Z,11.20
2022-10-25T02:51:42.659Z,11.07
2022-10-25T02:54:10.091Z,12.73
2022-10-25T02:56:38.132Z,11.02
2022-10-25T02:59:06.361Z,11.82
2022-10-25T03:01:33.740Z,11.48
2022-10-25T03:04:01.412Z,10.77
2022-10-25T03:06:28.735Z,10.82
2022-10-25T03:08:56.074Z,10.38
2022-10-25T03:11:23.678Z,9.88
2022-10-25T03:13:50.994Z,9.50
2022-10-25T03:16:18.303Z,9.75
2022-10-25T03:18:45.881Z,9.13
2022-10-25T03:21:13.200Z,9.50
2022-10-25T03:23:40.624Z,9.57
2022-10-25T03:26:08.210Z,9.10
2022-10-25T03:28:35.537Z,8.73
2022-10-25T03:31:02.868Z,8.52
2022-10-25T03:35:58.694Z,8.07
2022-10-25T03:38:26.028Z,9.15
2022-10-25T03:40:53.630Z,8.35
2022-10-25T03:43:20.992Z,9.38
2022-10-25T03:45:48.356Z,8.90
2022-10-25T03:48:16.024Z,8.38
2022-10-25T03:50:43.527Z,8.20
2022-10-25T03:53:11.347Z,8.15
2022-10-25T03:55:39.046Z,8.05
2022-10-25T03:58:06.424Z,7.97
2022-10-25T04:00:33.833Z,7.93
2022-10-25T04:03:02.461Z,9.13
2022-10-25T04:05:31.000Z,9.35
2022-10-25T04:07:58.950Z,9.07
2022-10-25T04:10:26.860Z,8.00
2022-10-25T04:12:54.936Z,8.48
2022-10-25T04:15:23.525Z,8.82
2022-10-25T04:17:52.080Z,9.60
2022-10-25T04:20:19.840Z,8.82
2022-10-25T04:22:54.060Z,9.02
2022-10-25T04:25:22.312Z,8.50
2022-10-25T04:27:49.915Z,8.55
2022-10-25T04:30:17.572Z,8.30
2022-10-25T04:32:45.459Z,8.77
2022-10-25T04:35:12.979Z,9.13
2022-10-25T04:37:40.316Z,8.70
2022-10-25T04:40:08.673Z,8.02
2022-10-25T04:42:35.994Z,8.63
2022-10-25T04:45:03.695Z,8.57
2022-10-25T04:47:32.518Z,8.50
2022-10-25T04:50:00.042Z,8.38
2022-10-25T04:52:29.926Z,8.07
2022-10-25T04:54:58.039Z,8.82
2022-10-25T04:57:25.994Z,8.60
2022-10-25T04:59:53.503Z,9.00
2022-10-25T05:02:21.118Z,9.05
2022-10-25T05:04:48.444Z,8.40
2022-10-25T05:07:19.799Z,9.32
2022-10-25T05:09:47.735Z,8.70
2022-10-25T05:12:15.530Z,8.50
2022-10-25T05:14:42.914Z,8.35
2022-10-25T05:17:10.522Z,8.68
2022-10-25T05:19:37.930Z,8.20
2022-10-25T05:22:05.283Z,8.05
2022-10-25T05:24:32.922Z,7.72
2022-10-25T05:27:00.277Z,7.85
2022-10-25T05:29:27.655Z,8.10
2022-10-25T05:31:55.460Z,7.50
2022-10-25T05:34:22.845Z,7.25
2022-10-25T05:36:50.184Z,7.00
2022-10-25T05:39:17.777Z,7.37
2022-10-25T05:41:45.151Z,6.80
2022-10-25T05:44:12.491Z,6.78
2022-10-25T05:46:40.070Z,7.68
2022-10-25T05:49:07.392Z,6.85
2022-10-25T05:51:41.560Z,7.03
2022-10-25T05:54:12.019Z,7.78
2022-10-25T05:56:40.030Z,7.97
2022-10-25T05:59:09.880Z,8.00
2022-10-25T06:01:40.378Z,8.40
2022-10-25T06:04:09.019Z,8.63
2022-10-25T06:06:37.419Z,8.88
2022-10-25T06:09:05.376Z,8.52
2022-10-25T06:11:32.967Z,8.35
2022-10-25T06:14:00.435Z,8.50
2022-10-25T06:16:27.957Z,8.18
2022-10-25T06:18:55.837Z,8.43
2022-10-25T06:21:28.355Z,8.57
2022-10-25T06:23:56.771Z,9.00
2022-10-25T06:26:27.014Z,8.80
2022-10-25T06:28:56.516Z,8.57
2022-10-25T06:31:24.739Z,8.82
2022-10-25T06:33:52.316Z,8.27
2022-10-25T06:36:21.690Z,7.72
2022-10-25T06:38:49.965Z,8.30
2022-10-25T06:41:19.514Z,7.85
2022-10-25T06:43:46.997Z,8.65
2022-10-25T06:46:21.484Z,9.13
2022-10-25T06:48:49.449Z,8.18
2022-10-25T06:51:17.029Z,8.98
2022-10-25T06:53:44.602Z,7.55
2022-10-25T06:56:14.723Z,7.55
2022-10-25T06:58:42.765Z,7.25
2022-10-25T07:01:15.465Z,6.85
2022-10-25T07:03:43.650Z,6.90
2022-10-25T07:06:16.654Z,7.87
2022-10-25T07:08:45.959Z,7.43
2022-10-25T07:11:18.286Z,7.18
2022-10-25T07:13:47.035Z,7.22
2022-10-25T07:16:16.861Z,6.95
2022-10-25T07:18:44.536Z,7.78
2022-10-25T07:21:20.538Z,6.80
2022-10-25T07:23:49.254Z,6.43
2022-10-25T07:26:18.315Z,6.70
2022-10-25T07:28:47.022Z,7.25
2022-10-25T07:31:26.530Z,5.97
2022-10-25T07:33:55.012Z,6.53
2022-10-25T07:36:22.487Z,5.72
2022-10-25T07:38:49.795Z,5.82
2022-10-25T07:41:17.512Z,5.60
2022-10-25T07:43:44.864Z,5.72
2022-10-25T07:46:12.281Z,5.30
2022-10-25T07:48:39.856Z,5.30
2022-10-25T07:51:10.694Z,5.40
2022-10-25T07:53:38.211Z,6.28
2022-10-25T07:56:06.445Z,6.18
2022-10-25T07:58:33.792Z,6.10
2022-10-25T08:01:06.231Z,5.25
2022-10-25T08:03:33.951Z,5.03
2022-10-25T08:06:01.725Z,5.60
2022-10-25T08:08:29.716Z,5.12
2022-10-25T08:10:57.878Z,4.97
2022-10-25T08:13:25.430Z,5.28
2022-10-25T08:15:54.166Z,5.30
2022-10-25T08:18:22.544Z,5.37
2022-10-25T08:21:01.637Z,5.20
2022-10-25T08:23:31.585Z,5.60
2022-10-25T08:26:00.133Z,5.05
2022-10-25T08:28:27.558Z,5.62
2022-10-25T08:30:55.777Z,5.82
2022-10-25T08:33:24.064Z,5.72
2022-10-25T08:35:51.466Z,5.70
2022-10-25T08:38:19.032Z,5.93
2022-10-25T08:40:57.010Z,5.85
2022-10-25T08:43:48.940Z,6.50
2022-10-25T08:46:23.921Z,7.07
2022-10-25T08:49:15.716Z,6.75
2022-10-25T08:51:45.403Z,7.00
2022-10-25T08:54:35.638Z,6.85
2022-10-25T08:57:15.514Z,7.57
2022-10-25T08:59:48.490Z,7.37
2022-10-25T09:02:55.030Z,7.22
2022-10-25T09:05:44.901Z,6.65
2022-10-25T09:08:34.074Z,6.43
2022-10-25T09:11:10.826Z,6.28
2022-10-25T09:13:40.901Z,5.78
2022-10-25T09:16:38.787Z,6.47
2022-10-25T09:19:36.303Z,5.95
2022-10-25T09:22:05.936Z,6.35
2022-10-25T09:24:57.671Z,6.70
2022-10-25T09:27:36.126Z,6.10
2022-10-25T09:30:13.234Z,6.15
2022-10-25T09:32:47.671Z,5.87
2022-10-25T09:35:21.712Z,5.62
2022-10-25T09:37:52.594Z,5.45
2022-10-25T09:40:23.163Z,5.82
2022-10-25T09:43:02.146Z,5.78
2022-10-25T09:45:37.362Z,5.70
2022-10-25T09:48:13.230Z,5.50
2022-10-25T09:50:52.301Z,5.18
2022-10-25T09:53:23.163Z,5.78
2022-10-25T09:56:01.884Z,5.22
2022-10-25T09:58:31.463Z,4.97
2022-10-25T10:01:05.223Z,5.35
2022-10-25T10:03:35.385Z,5.28
2022-10-25T10:06:06.643Z,5.82
2022-10-25T10:08:35.476Z,5.28
2022-10-25T10:11:04.904Z,4.70
2022-10-25T10:13:43.236Z,5.00
2022-10-25T10:16:36.455Z,5.50
2022-10-25T10:19:18.429Z,5.12
2022-10-25T10:21:51.420Z,4.95
2022-10-25T10:24:25.683Z,5.05
2022-10-25T10:26:57.254Z,4.97
2022-10-25T10:29:35.036Z,5.55
2022-10-25T10:32:21.388Z,4.85
2022-10-25T10:34:55.227Z,5.30
2022-10-25T10:37:24.489Z,4.78
2022-10-25T10:39:51.656Z,4.62
2022-10-25T10:42:43.432Z,4.55
2022-10-25T10:45:12.311Z,5.07
2022-10-25T10:47:48.780Z,4.90
2022-10-25T10:50:22.573Z,4.43
2022-10-25T10:53:01.942Z,4.05
2022-10-25T10:55:32.672Z,4.32
2022-10-25T10:58:06.118Z,3.80
2022-10-25T11:00:34.451Z,4.13
2022-10-25T11:03:01.888Z,4.20
2022-10-25T11:05:33.915Z,4.50
2022-10-25T11:08:07.641Z,4.03
2022-10-25T11:10:38.710Z,4.32
2022-10-25T11:13:14.975Z,3.85
2022-10-25T11:16:24.431Z,3.60
2022-10-25T11:19:06.468Z,3.95
2022-10-25T11:21:33.658Z,3.40
2022-10-25T11:24:38.200Z,2.85
2022-10-25T11:27:11.468Z,3.50
2022-10-25T11:30:00.739Z,3.15
2022-10-25T11:32:51.276Z,3.12
2022-10-25T11:35:41.238Z,3.03
2022-10-25T11:38:34.254Z,2.78
2022-10-25T11:41:15.686Z,2.70
2022-10-25T11:43:52.801Z,2.85
2022-10-25T11:46:32.731Z,2.92
2022-10-25T11:49:28.685Z,2.30
2022-10-25T11:55:09.518Z,1.70
2022-10-25T11:57:45.725Z,1.60
2022-10-25T12:00:22.409Z,1.10
2022-10-25T12:03:02.458Z,1.30
2022-10-25T12:06:07.001Z,1.27
2022-10-25T12:09:13.034Z,1.20
2022-10-25T12:11:49.954Z,1.00
2022-10-25T12:14:24.333Z,1.00
2022-10-25T12:16:51.665Z,1.25
2022-10-25T12:19:27.049Z,1.10
2022-10-25T12:22:04.188Z,1.05
2022-10-25T12:24:39.282Z,0.98
2022-10-25T12:27:08.428Z,1.33
2022-10-25T12:29:40.176Z,1.00
2022-10-25T12:32:15.754Z,0.90
2022-10-25T12:34:46.108Z,1.20
2022-10-25T12:37:49.073Z,1.12
2022-10-25T12:40:19.811Z,1.00
2022-10-25T12:42:48.389Z,1.62
2022-10-25T12:45:38.921Z,1.80
2022-10-25T12:48:48.026Z,1.45
2022-10-25T12:51:49.744Z,1.30
2022-10-25T12:54:29.997Z,1.50
2022-10-25T12:57:25.562Z,1.80
2022-10-25T13:00:03.776Z,2.78
2022-10-25T13:02:47.639Z,2.10
2022-10-25T13:05:30.708Z,2.03
2022-10-25T13:08:00.138Z,2.35
2022-10-25T13:10:32.222Z,1.90
2022-10-25T13:13:04.727Z,1.60
2022-10-25T13:15:50.223Z,1.60
2022-10-25T13:18:40.032Z,1.90
2022-10-25T13:21:12.220Z,1.73
2022-10-25T13:23:42.560Z,1.90
2022-10-25T13:26:12.339Z,1.67
2022-10-25T13:28:51.039Z,1.75
2022-10-25T13:31:33.973Z,1.58
2022-10-25T13:34:13.366Z,1.40
2022-10-25T13:36:54.828Z,1.20
2022-10-25T13:39:45.167Z,1.52
2022-10-25T13:42:15.726Z,1.58
2022-10-25T13:45:04.819Z,1.40
2022-10-25T13:47:50.470Z,1.20
2022-10-25T13:50:23.814Z,1.17
2022-10-25T13:53:22.477Z,1.40
2022-10-25T13:55:55.482Z,1.30
2022-10-25T13:58:31.654Z,1.40
2022-10-25T14:01:15.114Z,1.70
2022-10-25T14:03:48.432Z,1.83
2022-10-25T14:06:28.100Z,1.55
2022-10-25T14:09:33.813Z,1.58
2022-10-25T14:12:01.130Z,1.73
2022-10-25T14:14:29.979Z,1.50
2022-10-25T14:17:19.411Z,1.50
2022-10-25T14:19:56.499Z,1.80
2022-10-25T14:22:32.673Z,1.40
2022-10-25T14:25:06.249Z,1.30
2022-10-25T14:27:35.984Z,1.60
2022-10-25T14:30:28.856Z,1.85
2022-10-25T14:33:01.157Z,1.42
2022-10-25T14:35:49.246Z,2.20
2022-10-25T14:38:22.187Z,2.20
2022-10-25T14:40:57.208Z,2.08
2022-10-25T14:43:26.035Z,2.55
2022-10-25T14:46:09.784Z,2.87
2022-10-25T14:48:37.245Z,2.10
2022-10-25T14:51:21.790Z,2.58
2022-10-25T14:54:00.651Z,1.98
2022-10-25T14:56:31.958Z,2.03
2022-10-25T14:58:59.980Z,2.00
2022-10-25T15:01:27.973Z,1.90
2022-10-25T15:03:57.323Z,2.83
2022-10-25T15:06:27.370Z,2.12
2022-10-25T15:09:28.994Z,2.03
2022-10-25T15:12:07.525Z,1.52
2022-10-25T15:14:37.047Z,1.62
2022-10-25T15:17:15.841Z,1.67
2022-10-25T15:20:07.381Z,1.90
2022-10-25T15:22:37.370Z,2.00
2022-10-25T15:25:23.289Z,2.00
2022-10-25T15:27:52.060Z,2.55
2022-10-25T15:30:37.787Z,2.20
2022-10-25T15:33:10.192Z,1.70
2022-10-25T15:35:48.287Z,1.55
2022-10-25T15:38:17.493Z,1.65
2022-10-25T15:40:48.411Z,1.80
2022-10-25T15:43:15.772Z,1.55
2022-10-25T15:45:44.038Z,1.50
2022-10-25T15:48:20.371Z,1.77
2022-10-25T15:50:50.665Z,1.70
2022-10-25T15:53:18.396Z,1.40
2022-10-25T15:55:46.034Z,1.60
2022-10-25T15:58:13.391Z,1.60
2022-10-25T16:00:41.077Z,1.70
2022-10-25T16:03:16.224Z,1.48
2022-10-25T16:05:43.552Z,1.85
2022-10-25T16:08:11.209Z,1.87
2022-10-25T16:10:38.815Z,2.15
2022-10-25T16:13:10.449Z,1.80
2022-10-25T16:15:38.178Z,2.10
2022-10-25T16:18:06.428Z,2.70
2022-10-25T16:20:34.578Z,3.05
2022-10-25T16:23:02.206Z,2.75
2022-10-25T16:25:32.917Z,3.05
2022-10-25T16:28:00.824Z,3.55
2022-10-25T16:30:32.408Z,4.70
2022-10-25T16:32:59.804Z,5.35
2022-10-25T16:35:27.115Z,4.82
2022-10-25T16:37:54.995Z,5.90
2022-10-25T16:40:23.033Z,5.20
2022-10-25T16:42:50.665Z,5.95
2022-10-25T16:45:33.152Z,5.43
2022-10-25T16:48:07.334Z,6.37
2022-10-25T16:50:38.317Z,7.03
2022-10-25T16:53:09.718Z,6.30
2022-10-25T16:55:37.371Z,6.82
2022-10-25T16:58:05.143Z,5.62
2022-10-25T17:00:35.408Z,7.78
2022-10-25T17:03:03.779Z,7.95
2022-10-25T17:05:33.473Z,11.05
2022-10-25T17:08:00.838Z,12.52
2022-10-25T17:10:28.690Z,14.77
2022-10-25T17:13:03.354Z,13.57
2022-10-25T17:15:31.628Z,10.90
2022-10-25T17:17:59.525Z,9.40
2022-10-25T17:20:27.214Z,9.80
2022-10-25T17:22:54.844Z,8.68
2022-10-25T17:25:22.208Z,8.48
2022-10-25T17:27:51.533Z,8.23
2022-10-25T17:30:20.687Z,11.88
2022-10-25T17:32:48.637Z,9.15
2022-10-25T17:35:16.484Z,8.52
2022-10-25T17:37:44.511Z,9.63
2022-10-25T17:40:14.033Z,8.68
2022-10-25T17:42:41.420Z,8.60
2022-10-25T17:45:09.563Z,8.45
2022-10-25T17:47:37.709Z,8.40
2022-10-25T17:50:05.697Z,8.32
2022-10-25T17:52:33.295Z,9.63
2022-10-25T17:55:01.343Z,10.02
2022-10-25T17:57:29.175Z,11.93
2022-10-25T17:59:58.348Z,11.85
2022-10-25T18:02:25.847Z,12.63
2022-10-25T18:05:15.214Z,14.00
2022-10-25T18:07:41.456Z,14.20
2022-10-25T18:10:09.490Z,14.77
2022-10-25T18:12:37.081Z,15.07
2022-10-25T18:15:06.081Z,14.73
2022-10-25T18:17:33.932Z,14.98
2022-10-25T18:20:01.652Z,14.25
2022-10-25T18:22:29.607Z,16.15
2022-10-25T18:24:57.644Z,15.30
2022-10-25T18:27:25.472Z,15.43
2022-10-25T18:29:53.357Z,15.70
2022-10-25T18:32:30.920Z,13.80
2022-10-25T18:35:01.597Z,14.57
2022-10-25T18:37:29.658Z,12.88
2022-10-25T18:39:57.694Z,13.45
2022-10-25T18:42:25.459Z,12.98
2022-10-25T18:44:55.369Z,19.27
2022-10-25T18:47:23.145Z,17.42
2022-10-25T18:49:50.962Z,14.87
2022-10-25T18:52:18.639Z,14.13
2022-10-25T18:54:46.354Z,15.57
2022-10-25T18:57:15.277Z,12.70
2022-10-25T18:59:43.443Z,14.07
2022-10-25T19:02:11.686Z,14.68
2022-10-25T19:04:39.787Z,14.82
2022-10-25T19:07:07.921Z,14.55
2022-10-25T19:09:35.862Z,13.40
2022-10-25T19:12:03.462Z,12.07
2022-10-25T19:14:31.223Z,12.20
2022-10-25T19:16:59.005Z,12.35
2022-10-25T19:19:26.954Z,12.60
2022-10-25T19:21:55.316Z,12.93
2022-10-25T19:24:23.498Z,13.02
2022-10-25T19:26:51.304Z,12.35
2022-10-25T19:29:18.919Z,13.05
2022-10-25T19:31:46.813Z,11.88
2022-10-25T19:34:14.465Z,12.07
2022-10-25T19:36:42.525Z,12.23
2022-10-25T19:39:10.331Z,11.68
2022-10-25T19:41:38.422Z,12.50
2022-10-25T19:44:06.652Z,12.68
2022-10-25T19:46:34.740Z,12.27
2022-10-25T19:49:02.791Z,11.70
2022-10-25T19:51:31.093Z,11.38
2022-10-25T19:53:59.015Z,10.77
2022-10-25T19:56:26.838Z,10.55
2022-10-25T19:58:54.797Z,10.73
2022-10-25T20:01:29.385Z,10.43
2022-10-25T20:03:59.145Z,9.30
2022-10-25T20:06:29.236Z,9.35
2022-10-25T20:08:57.799Z,8.93
2022-10-25T20:11:26.378Z,8.70
2022-10-25T20:13:55.417Z,8.30
2022-10-25T20:16:24.252Z,9.18
2022-10-25T20:18:52.364Z,8.60
2022-10-25T20:21:25.119Z,9.60
2022-10-25T20:24:01.367Z,12.23
2022-10-25T20:26:31.768Z,13.52
2022-10-25T20:29:02.901Z,11.70
2022-10-25T20:31:32.206Z,11.95
2022-10-25T20:34:00.637Z,10.85
2022-10-25T20:36:28.336Z,11.10
2022-10-25T20:38:55.915Z,10.85
2022-10-25T20:41:26.178Z,10.48
2022-10-25T20:43:57.172Z,10.13
2022-10-25T20:46:26.106Z,10.35
2022-10-25T20:48:54.072Z,10.15
2022-10-25T20:51:21.722Z,10.52
2022-10-25T20:53:49.540Z,12.02
2022-10-25T20:56:17.851Z,12.05
2022-10-25T20:58:45.487Z,15.18
2022-10-25T21:01:13.281Z,12.10
2022-10-25T21:03:40.706Z,13.77
2022-10-25T21:06:10.595Z,13.93
2022-10-25T21:08:38.295Z,12.52
2022-10-25T21:11:07.694Z,8.93
2022-10-25T21:13:35.890Z,7.97
2022-10-25T21:16:07.393Z,7.20
2022-10-25T21:18:36.093Z,6.40
2022-10-25T21:21:06.741Z,5.32
2022-10-25T21:23:34.477Z,5.03
2022-10-25T21:26:04.187Z,4.80
2022-10-25T21:28:36.743Z,5.00
2022-10-25T21:31:15.546Z,4.70
2022-10-25T21:33:51.807Z,4.70
2022-10-25T21:36:20.592Z,3.97
2022-10-25T21:38:48.622Z,4.70
2022-10-25T21:41:18.063Z,4.20
2022-10-25T21:43:47.366Z,4.20
2022-10-25T21:46:16.818Z,4.60
2022-10-25T21:48:47.173Z,4.80
2022-10-25T21:51:15.296Z,4.20
2022-10-25T21:53:42.860Z,3.92
2022-10-25T21:56:14.857Z,3.85
2022-10-25T21:58:44.586Z,4.03
2022-10-25T22:01:14.465Z,3.95
2022-10-25T22:03:42.352Z,3.87
2022-10-25T22:06:14.723Z,3.83
2022-10-25T22:08:42.754Z,3.80
2022-10-25T22:11:15.592Z,3.62
2022-10-25T22:13:43.981Z,4.47
2022-10-25T22:16:18.455Z,4.22
2022-10-25T22:19:00.205Z,3.70
2022-10-25T22:21:29.674Z,3.50
2022-10-25T22:23:57.621Z,3.62
2022-10-25T22:26:25.023Z,3.47
2022-10-25T22:28:53.485Z,3.60
2022-10-25T22:31:21.819Z,4.15
2022-10-25T22:33:54.741Z,3.60
2022-10-25T22:36:24.323Z,3.87
2022-10-25T22:38:51.931Z,3.85
2022-10-25T22:41:21.739Z,3.75
2022-10-25T22:43:49.785Z,3.20
2022-10-25T22:46:24.149Z,3.70
2022-10-25T22:48:53.430Z,3.85
2022-10-25T22:51:21.370Z,3.72
2022-10-25T22:53:48.698Z,3.72
2022-10-25T22:56:18.620Z,3.80
2022-10-25T22:58:51.315Z,3.87
2022-10-25T23:01:23.462Z,3.92
2022-10-25T23:03:54.520Z,4.05
2022-10-25T23:06:24.877Z,3.83
2022-10-25T23:09:05.010Z,3.60
2022-10-25T23:11:34.981Z,3.58
2022-10-25T23:14:02.709Z,3.85
2022-10-25T23:16:30.059Z,4.18
2022-10-25T23:18:57.887Z,3.83
2022-10-25T23:21:27.004Z,3.67
2022-10-25T23:23:54.942Z,3.37
2022-10-25T23:26:31.798Z,3.87
2022-10-25T23:28:59.820Z,4.05
2022-10-25T23:31:28.072Z,3.90
2022-10-25T23:33:57.504Z,4.05
2022-10-25T23:36:27.132Z,3.90
2022-10-25T23:38:55.464Z,3.15
2022-10-25T23:41:22.975Z,3.78
2022-10-25T23:43:50.574Z,4.07
2022-10-25T23:46:18.171Z,3.42
2022-10-25T23:48:45.494Z,3.75
2022-10-25T23:51:15.366Z,4.00
2022-10-25T23:53:43.273Z,3.92
2022-10-25T23:56:12.574Z,4.00
2022-10-25T23:58:40.184Z,3.45
